createdAt,value
2023-05-14T00:02:25.179Z,10.62
2023-05-14T00:05:30.941Z,10.49
2023-05-14T00:08:40.194Z,10.38
2023-05-14T00:11:46.311Z,10.31
2023-05-14T00:14:52.824Z,10.31
2023-05-14T00:17:58.648Z,10.35
2023-05-14T00:21:05.295Z,10.34
2023-05-14T00:24:13.635Z,10.31
2023-05-14T00:27:20.029Z,10.24
2023-05-14T00:30:25.979Z,10.09
2023-05-14T00:33:33.879Z,9.91
2023-05-14T00:36:39.606Z,9.83
2023-05-14T00:39:48.634Z,9.85
2023-05-14T00:42:54.597Z,9.93
2023-05-14T00:46:01.297Z,9.87
2023-05-14T00:49:07.924Z,9.75
2023-05-14T00:52:15.431Z,9.68
2023-05-14T00:55:26.052Z,9.73
2023-05-14T00:58:34.598Z,9.76
2023-05-14T01:01:40.885Z,9.79
2023-05-14T01:04:47.796Z,9.87
2023-05-14T01:08:10.758Z,9.97
2023-05-14T01:11:28.254Z,10.05
2023-05-14T01:14:48.179Z,10.05
2023-05-14T01:18:00.819Z,10.02
2023-05-14T01:21:06.623Z,10.07
2023-05-14T01:24:15.610Z,10.13
2023-05-14T01:27:33.043Z,10.17
2023-05-14T01:30:45.053Z,10.17
2023-05-14T01:33:53.477Z,10.17
2023-05-14T01:37:01.155Z,10.17
2023-05-14T01:40:13.162Z,10.18
2023-05-14T01:43:20.942Z,10.17
2023-05-14T01:46:27.229Z,10.20
2023-05-14T01:49:33.771Z,10.23
2023-05-14T01:52:39.448Z,10.26
2023-05-14T01:55:48.426Z,10.26
2023-05-14T01:58:55.785Z,10.18
2023-05-14T02:02:02.734Z,10.15
2023-05-14T02:05:09.789Z,10.05
2023-05-14T02:08:16.184Z,9.86
2023-05-14T02:11:24.491Z,9.73
2023-05-14T02:14:31.301Z,9.61
2023-05-14T02:17:37.407Z,9.56
2023-05-14T02:20:43.753Z,9.46
2023-05-14T02:23:49.727Z,9.42
2023-05-14T02:27:01.242Z,9.41
2023-05-14T02:30:08.166Z,9.48
2023-05-14T02:33:14.731Z,9.52
2023-05-14T02:36:20.357Z,9.61
2023-05-14T02:39:26.883Z,9.69
2023-05-14T02:42:35.194Z,9.74
2023-05-14T02:45:41.655Z,9.74
2023-05-14T02:48:47.154Z,9.78
2023-05-14T02:51:54.490Z,9.86
2023-05-14T02:55:00.165Z,9.94
2023-05-14T02:58:09.073Z,9.88
2023-05-14T03:01:14.750Z,9.83
2023-05-14T03:04:21.756Z,9.83
2023-05-14T03:07:27.505Z,9.78
2023-05-14T03:10:33.979Z,9.66
2023-05-14T03:13:42.155Z,9.59
2023-05-14T03:16:48.881Z,9.57
2023-05-14T03:19:54.536Z,9.61
2023-05-14T03:23:01.037Z,9.71
2023-05-14T03:26:06.790Z,9.77
2023-05-14T03:29:18.259Z,9.82
2023-05-14T03:32:24.136Z,9.85
2023-05-14T03:35:30.539Z,9.83
2023-05-14T03:38:36.243Z,9.86
2023-05-14T03:41:44.026Z,9.88
2023-05-14T03:44:52.342Z,9.88
2023-05-14T03:47:58.813Z,9.85
2023-05-14T03:51:05.167Z,9.85
2023-05-14T03:54:11.678Z,9.77
2023-05-14T03:57:17.257Z,9.68
2023-05-14T04:00:26.837Z,9.67
2023-05-14T04:03:32.814Z,9.67
2023-05-14T04:06:39.356Z,9.65
2023-05-14T04:09:44.861Z,9.68
2023-05-14T04:12:51.737Z,9.76
2023-05-14T04:16:00.701Z,9.74
2023-05-14T04:19:07.766Z,9.56
2023-05-14T04:22:14.766Z,9.43
2023-05-14T04:25:21.655Z,9.35
2023-05-14T04:28:27.569Z,9.31
2023-05-14T04:31:36.763Z,9.38
2023-05-14T04:34:42.700Z,9.53
2023-05-14T04:37:49.393Z,9.63
2023-05-14T04:40:55.096Z,9.75
2023-05-14T04:44:04.219Z,9.82
2023-05-14T04:47:12.782Z,9.91
2023-05-14T04:50:19.552Z,10.00
2023-05-14T04:53:25.547Z,10.09
2023-05-14T04:56:32.070Z,10.19
2023-05-14T04:59:37.681Z,10.29
2023-05-14T05:02:46.849Z,10.33
2023-05-14T05:05:53.092Z,10.39
2023-05-14T05:09:01.326Z,10.40
2023-05-14T05:12:09.225Z,10.39
2023-05-14T05:15:15.700Z,10.39
2023-05-14T05:18:23.864Z,10.40
2023-05-14T05:21:30.742Z,10.44
2023-05-14T05:24:36.391Z,10.54
2023-05-14T05:27:42.808Z,10.67
2023-05-14T05:30:48.624Z,10.78
2023-05-14T05:33:57.815Z,10.91
2023-05-14T05:37:03.486Z,11.08
2023-05-14T05:40:14.190Z,11.26
2023-05-14T05:43:19.866Z,11.38
2023-05-14T05:46:26.454Z,11.49
2023-05-14T05:49:34.653Z,11.54
2023-05-14T05:52:42.062Z,11.57
2023-05-14T05:55:48.120Z,11.58
2023-05-14T05:58:54.667Z,11.66
2023-05-14T06:02:00.436Z,11.54
2023-05-14T06:05:11.768Z,11.48
2023-05-14T06:08:17.517Z,11.60
2023-05-14T06:11:23.930Z,11.81
2023-05-14T06:14:29.576Z,11.96
2023-05-14T06:17:36.045Z,12.16
2023-05-14T06:20:44.366Z,12.06
2023-05-14T06:23:50.939Z,12.01
2023-05-14T06:26:56.749Z,12.08
2023-05-14T06:30:03.245Z,12.22
2023-05-14T06:33:08.955Z,12.44
2023-05-14T06:36:17.968Z,12.68
2023-05-14T06:39:24.162Z,12.82
2023-05-14T06:42:30.597Z,12.97
2023-05-14T06:45:37.388Z,13.16
2023-05-14T06:48:43.906Z,13.35
2023-05-14T06:51:52.583Z,13.51
2023-05-14T06:54:59.026Z,13.58
2023-05-14T06:58:05.003Z,13.70
2023-05-14T07:01:11.741Z,13.83
2023-05-14T07:04:17.689Z,13.96
2023-05-14T07:07:26.839Z,14.10
2023-05-14T07:10:32.946Z,14.29
2023-05-14T07:13:39.349Z,14.61
2023-05-14T07:16:47.131Z,15.04
2023-05-14T07:19:55.706Z,15.34
2023-05-14T07:23:04.023Z,15.38
2023-05-14T07:26:11.654Z,15.25
2023-05-14T07:29:17.216Z,15.14
2023-05-14T07:32:25.281Z,15.12
2023-05-14T07:35:34.621Z,15.14
2023-05-14T07:38:44.525Z,15.32
2023-05-14T07:41:50.365Z,15.41
2023-05-14T07:44:56.830Z,15.48
2023-05-14T07:48:02.518Z,15.38
2023-05-14T07:51:08.954Z,15.54
2023-05-14T07:54:17.151Z,15.73
2023-05-14T07:57:23.675Z,15.88
2023-05-14T08:00:29.390Z,16.03
2023-05-14T08:03:36.245Z,16.06
2023-05-14T08:06:42.208Z,16.25
2023-05-14T08:09:51.174Z,16.45
2023-05-14T08:12:56.869Z,16.64
2023-05-14T08:16:03.281Z,16.71
2023-05-14T08:19:09.018Z,16.79
2023-05-14T08:22:15.500Z,16.92
2023-05-14T08:25:23.733Z,17.05
2023-05-14T08:28:31.082Z,17.09
2023-05-14T08:31:36.736Z,17.19
2023-05-14T08:34:44.097Z,17.30
2023-05-14T08:37:50.446Z,17.61
2023-05-14T08:41:03.318Z,18.04
2023-05-14T08:44:15.414Z,18.68
2023-05-14T08:47:25.119Z,19.18
2023-05-14T08:50:32.923Z,19.91
2023-05-14T08:53:40.593Z,20.56
2023-05-14T08:56:51.235Z,21.15
2023-05-14T08:59:59.003Z,21.92
2023-05-14T09:03:06.943Z,22.58
2023-05-14T09:06:17.119Z,23.21
2023-05-14T09:09:24.054Z,23.75
2023-05-14T09:12:33.457Z,24.24
2023-05-14T09:15:42.302Z,24.53
2023-05-14T09:18:49.024Z,24.92
2023-05-14T09:21:55.726Z,24.98
2023-05-14T09:25:09.626Z,25.03
2023-05-14T09:28:21.573Z,25.16
2023-05-14T09:31:28.153Z,25.35
2023-05-14T09:34:38.036Z,25.49
2023-05-14T09:37:46.583Z,25.51
2023-05-14T09:40:52.265Z,25.53
2023-05-14T09:44:03.361Z,25.61
2023-05-14T09:47:10.372Z,25.85
2023-05-14T09:50:16.956Z,26.14
2023-05-14T09:53:22.713Z,26.27
2023-05-14T09:56:29.604Z,26.44
2023-05-14T09:59:37.830Z,26.62
2023-05-14T10:02:49.972Z,26.32
2023-05-14T10:05:56.726Z,26.48
2023-05-14T10:09:08.680Z,26.66
2023-05-14T10:12:15.856Z,26.72
2023-05-14T10:15:36.221Z,26.71
2023-05-14T10:18:48.897Z,26.82
2023-05-14T10:22:02.803Z,26.74
2023-05-14T10:25:10.169Z,26.78
2023-05-14T10:28:17.234Z,26.62
2023-05-14T10:31:26.749Z,26.16
2023-05-14T10:34:41.798Z,25.21
2023-05-14T10:37:49.252Z,24.56
2023-05-14T10:41:00.671Z,24.12
2023-05-14T10:44:13.023Z,23.58
2023-05-14T10:47:22.929Z,23.40
2023-05-14T10:50:30.093Z,23.50
2023-05-14T10:53:38.999Z,23.11
2023-05-14T10:56:48.761Z,22.99
2023-05-14T10:59:57.960Z,23.03
2023-05-14T11:03:10.127Z,22.76
2023-05-14T11:06:19.013Z,22.46
2023-05-14T11:09:25.423Z,22.24
2023-05-14T11:12:32.446Z,22.30
2023-05-14T11:15:38.784Z,22.37
2023-05-14T11:18:47.921Z,22.38
2023-05-14T11:21:53.558Z,21.94
2023-05-14T11:25:00.554Z,21.89
2023-05-14T11:28:06.375Z,21.96
2023-05-14T11:31:13.492Z,21.79
2023-05-14T11:34:21.926Z,21.82
2023-05-14T11:37:28.278Z,21.87
2023-05-14T11:40:34.158Z,21.67
2023-05-14T11:43:40.656Z,21.80
2023-05-14T11:46:58.193Z,21.84
2023-05-14T11:50:21.374Z,21.97
2023-05-14T11:53:33.375Z,21.96
2023-05-14T11:56:39.780Z,22.18
2023-05-14T11:59:46.126Z,22.35
2023-05-14T12:02:53.051Z,22.54
2023-05-14T12:06:04.400Z,22.81
2023-05-14T12:09:10.949Z,22.96
2023-05-14T12:12:16.900Z,23.08
2023-05-14T12:15:24.567Z,22.69
2023-05-14T12:18:33.179Z,22.82
2023-05-14T12:21:43.148Z,22.96
2023-05-14T12:24:57.330Z,23.18
2023-05-14T12:28:04.637Z,23.10
2023-05-14T12:31:10.284Z,23.17
2023-05-14T12:34:17.034Z,23.20
2023-05-14T12:37:25.280Z,23.39
2023-05-14T12:40:32.059Z,23.43
2023-05-14T12:43:39.150Z,23.55
2023-05-14T12:46:46.574Z,23.55
2023-05-14T12:49:52.219Z,23.46
2023-05-14T12:53:01.283Z,23.47
2023-05-14T12:56:07.607Z,23.48
2023-05-14T12:59:14.102Z,23.33
2023-05-14T13:02:19.821Z,23.28
2023-05-14T13:05:26.485Z,23.11
2023-05-14T13:08:34.775Z,23.13
2023-05-14T13:11:41.316Z,23.01
2023-05-14T13:14:47.304Z,22.88
2023-05-14T13:17:55.788Z,22.83
2023-05-14T13:21:04.658Z,22.81
2023-05-14T13:24:15.445Z,22.80
2023-05-14T13:27:21.122Z,22.79
2023-05-14T13:30:28.044Z,22.80
2023-05-14T13:33:33.664Z,22.70
2023-05-14T13:36:40.923Z,22.76
2023-05-14T13:39:50.693Z,22.80
2023-05-14T13:42:58.160Z,22.68
2023-05-14T13:46:04.462Z,22.79
2023-05-14T13:49:13.571Z,22.81
2023-05-14T13:52:19.189Z,22.81
2023-05-14T13:55:28.689Z,22.81
2023-05-14T13:58:35.189Z,22.68
2023-05-14T14:01:43.422Z,22.70
2023-05-14T14:04:49.683Z,22.67
2023-05-14T14:08:00.875Z,22.57
2023-05-14T14:11:13.770Z,22.61
2023-05-14T14:14:21.379Z,22.63
2023-05-14T14:17:27.059Z,22.62
2023-05-14T14:20:34.113Z,22.60
2023-05-14T14:23:39.847Z,22.53
2023-05-14T14:26:49.075Z,22.41
2023-05-14T14:29:54.887Z,22.36
2023-05-14T14:33:01.723Z,22.28
2023-05-14T14:36:08.691Z,22.21
2023-05-14T14:39:15.259Z,22.08
2023-05-14T14:42:23.498Z,21.95
2023-05-14T14:45:32.712Z,21.92
2023-05-14T14:48:41.695Z,21.79
2023-05-14T14:51:48.548Z,21.75
2023-05-14T14:54:55.604Z,21.71
2023-05-14T14:58:04.907Z,21.73
2023-05-14T15:01:11.012Z,21.67
2023-05-14T15:04:17.555Z,21.57
2023-05-14T15:09:26.630Z,21.45
2023-05-14T15:12:33.198Z,21.35
2023-05-14T15:15:39.856Z,21.28
2023-05-14T15:18:46.766Z,21.20
2023-05-14T15:21:52.751Z,21.07
2023-05-14T15:25:04.246Z,21.07
2023-05-14T15:28:10.595Z,21.00
2023-05-14T15:31:17.653Z,20.91
2023-05-14T15:34:23.495Z,20.84
2023-05-14T15:37:31.485Z,20.77
2023-05-14T15:40:40.566Z,20.80
2023-05-14T15:43:46.974Z,20.81
2023-05-14T15:46:52.927Z,20.79
2023-05-14T15:49:59.475Z,20.78
2023-05-14T15:53:05.877Z,20.76
2023-05-14T15:56:15.024Z,20.71
2023-05-14T15:59:22.186Z,20.66
2023-05-14T16:02:30.702Z,20.60
2023-05-14T16:05:37.328Z,20.55
2023-05-14T16:08:45.049Z,20.47
2023-05-14T16:11:53.391Z,20.40
2023-05-14T16:15:00.231Z,20.40
2023-05-14T16:18:06.148Z,20.42
2023-05-14T16:21:12.541Z,20.43
2023-05-14T16:24:20.913Z,20.38
2023-05-14T16:27:30.078Z,20.34
2023-05-14T16:30:36.085Z,20.19
2023-05-14T16:33:42.545Z,20.11
2023-05-14T16:36:48.307Z,20.15
2023-05-14T16:39:55.188Z,20.16
2023-05-14T16:43:03.609Z,20.16
2023-05-14T16:46:10.704Z,20.16
2023-05-14T16:49:17.063Z,20.12
2023-05-14T16:52:23.495Z,20.08
2023-05-14T16:55:29.263Z,20.05
2023-05-14T16:58:38.254Z,20.03
2023-05-14T17:01:44.425Z,19.89
2023-05-14T17:04:50.899Z,19.97
2023-05-14T17:07:57.079Z,19.93
2023-05-14T17:11:05.994Z,19.83
2023-05-14T17:14:14.352Z,19.80
2023-05-14T17:17:21.417Z,19.75
2023-05-14T17:20:27.618Z,19.69
2023-05-14T17:23:36.826Z,19.66
2023-05-14T17:26:42.603Z,19.60
2023-05-14T17:29:52.040Z,19.49
2023-05-14T17:32:57.792Z,19.48
2023-05-14T17:36:04.417Z,19.51
2023-05-14T17:39:10.027Z,19.48
2023-05-14T17:42:16.840Z,19.45
2023-05-14T17:45:25.510Z,18.98
2023-05-14T17:48:32.163Z,18.59
2023-05-14T17:51:38.715Z,18.29
2023-05-14T17:54:45.162Z,18.12
2023-05-14T17:57:50.995Z,17.90
2023-05-14T18:00:59.948Z,17.50
2023-05-14T18:04:05.807Z,17.20
2023-05-14T18:07:12.322Z,17.00
2023-05-14T18:10:17.984Z,16.78
2023-05-14T18:13:24.446Z,16.62
2023-05-14T18:16:33.686Z,16.63
2023-05-14T18:19:41.131Z,16.66
2023-05-14T18:22:46.710Z,16.70
2023-05-14T18:25:53.854Z,16.76
2023-05-14T18:29:01.359Z,16.89
2023-05-14T18:32:11.309Z,16.96
2023-05-14T18:35:17.243Z,17.10
2023-05-14T18:38:23.597Z,17.17
2023-05-14T18:41:29.380Z,17.25
2023-05-14T18:44:35.756Z,17.30
2023-05-14T18:47:44.480Z,17.34
2023-05-14T18:50:51.353Z,17.32
2023-05-14T18:53:57.069Z,17.28
2023-05-14T18:57:04.221Z,17.29
2023-05-14T19:00:12.172Z,17.10
2023-05-14T19:03:22.082Z,16.98
2023-05-14T19:06:28.938Z,17.01
2023-05-14T19:09:35.577Z,17.04
2023-05-14T19:12:41.406Z,17.05
2023-05-14T19:15:47.897Z,17.04
2023-05-14T19:18:56.452Z,16.99
2023-05-14T19:22:03.109Z,16.94
2023-05-14T19:25:11.407Z,16.79
2023-05-14T19:28:20.047Z,16.66
2023-05-14T19:31:26.031Z,16.54
2023-05-14T19:34:35.152Z,16.59
2023-05-14T19:37:40.847Z,16.54
2023-05-14T19:40:47.149Z,16.51
2023-05-14T19:43:52.842Z,16.40
2023-05-14T19:46:59.392Z,16.29
2023-05-14T19:50:09.313Z,16.27
2023-05-14T19:53:15.995Z,16.25
2023-05-14T19:56:21.769Z,16.17
2023-05-14T19:59:30.072Z,16.17
2023-05-14T20:02:35.790Z,16.17
2023-05-14T20:05:45.428Z,16.13
2023-05-14T20:08:51.732Z,16.11
2023-05-14T20:11:58.229Z,16.05
2023-05-14T20:15:04.479Z,16.04
2023-05-14T20:18:11.050Z,16.07
2023-05-14T20:21:20.879Z,16.09
2023-05-14T20:24:27.308Z,16.05
2023-05-14T20:27:33.524Z,16.04
2023-05-14T20:30:40.405Z,16.04
2023-05-14T20:33:46.275Z,16.00
2023-05-14T20:36:55.290Z,15.97
2023-05-14T20:40:01.232Z,15.96
2023-05-14T20:43:07.964Z,15.90
2023-05-14T20:46:13.734Z,15.86
2023-05-14T20:49:22.250Z,15.83
2023-05-14T20:52:30.647Z,15.75
2023-05-14T20:55:37.482Z,15.68
2023-05-14T20:58:43.173Z,15.68
2023-05-14T21:01:49.582Z,15.72
2023-05-14T21:04:55.246Z,15.72
2023-05-14T21:08:04.231Z,15.70
2023-05-14T21:11:10.305Z,15.72
2023-05-14T21:14:16.764Z,15.73
2023-05-14T21:17:22.467Z,15.70
2023-05-14T21:20:29.108Z,15.68
2023-05-14T21:23:38.033Z,15.69
2023-05-14T21:26:44.442Z,15.62
2023-05-14T21:29:50.170Z,15.62
2023-05-14T21:32:56.705Z,15.65
2023-05-14T21:36:02.825Z,15.63
2023-05-14T21:39:11.903Z,15.64
2023-05-14T21:42:17.958Z,15.60
2023-05-14T21:45:24.295Z,15.62
2023-05-14T21:48:30.072Z,15.66
2023-05-14T21:51:36.694Z,15.65
2023-05-14T21:54:45.097Z,15.65
2023-05-14T21:57:51.905Z,15.68
2023-05-14T22:00:57.999Z,15.64
2023-05-14T22:04:04.431Z,15.63
2023-05-14T22:07:10.271Z,15.63
2023-05-14T22:10:19.991Z,15.68
2023-05-14T22:13:26.025Z,15.65
2023-05-14T22:16:32.721Z,15.66
2023-05-14T22:19:38.694Z,15.60
2023-05-14T22:22:45.084Z,15.45
2023-05-14T22:25:53.475Z,15.26
2023-05-14T22:29:00.780Z,15.16
2023-05-14T22:32:07.738Z,15.16
2023-05-14T22:35:14.541Z,15.12
2023-05-14T22:38:20.235Z,15.11
2023-05-14T22:41:29.456Z,15.09
2023-05-14T22:44:35.812Z,15.07
2023-05-14T22:47:42.291Z,14.98
2023-05-14T22:50:47.952Z,14.98
2023-05-14T22:53:54.307Z,14.94
2023-05-14T22:57:03.464Z,14.96
2023-05-14T23:00:12.012Z,15.00
2023-05-14T23:03:17.743Z,15.04
2023-05-14T23:06:24.292Z,15.02
2023-05-14T23:09:29.898Z,14.91
2023-05-14T23:12:38.955Z,14.86
2023-05-14T23:15:45.684Z,14.83
2023-05-14T23:18:52.116Z,14.65
2023-05-14T23:21:58.541Z,14.75
2023-05-14T23:25:05.481Z,14.74
2023-05-14T23:28:14.524Z,14.78
2023-05-14T23:31:20.860Z,14.74
2023-05-14T23:34:27.302Z,14.77
2023-05-14T23:37:33.867Z,14.78
2023-05-14T23:40:40.240Z,14.84
2023-05-14T23:43:49.217Z,14.89
2023-05-14T23:46:55.087Z,14.91
2023-05-14T23:50:03.686Z,15.01
2023-05-14T23:53:09.395Z,15.00
2023-05-14T23:56:15.886Z,14.81
2023-05-14T23:59:24.156Z,14.86
